Time;durP1;ratioP1;P1;durP2;ratioP2;P2;SDS_P1;SDS_P2;PMS_P1;PMS_P2;Temp;Humidity;BMP_temperature;BMP_pressure;BME280_temperature;BME280_humidity;BME280_pressure;Samples;Min_cycle;Max_cycle;Signal;HPM_P1;HPM_P2
2022/02/19 00:01:33;;;;;;;;;;;;;;;;;;5054382;28;844;-71
2022/02/19 00:04:00;;;;;;;;;;;;;;;;;;5054063;28;1117;-71
2022/02/19 00:06:26;;;;;;;;;;;;;;;;;;5053892;28;1308;-71
2022/02/19 00:08:54;;;;;;;;;;;;;;;;;;5054338;28;1085;-71
2022/02/19 00:11:20;;;;;;;;;;;;;;;;;;5054142;28;897;-71
2022/02/19 00:13:46;;;;;;;;;;;;;;;;;;5054326;28;796;-71
2022/02/19 00:16:12;;;;;;;;;;;;;;;;;;5053884;28;1910;-71
2022/02/19 00:18:39;;;;;;;;;;;;;;;;;;5055052;28;796;-71
2022/02/19 00:21:05;;;;;;;;;;;;;;;;;;5054721;28;1133;-70
2022/02/19 00:23:31;;;;;;;;;;;;;;;;;;5054532;28;1101;-70
2022/02/19 00:25:59;;;;;;;;;;;;;;;;;;5053478;28;883;-70
2022/02/19 00:28:26;;;;;;;;;;;;;;;;;;5053837;28;1440;-71
2022/02/19 00:30:52;;;;;;;;;;;;;;;;;;5054305;28;1145;-70
2022/02/19 00:33:21;;;;;;;;;;;;;;;;;;5036365;28;1216;-70
2022/02/19 00:35:49;;;;;;;;;;;;;;;;;;5053620;28;774;-71
2022/02/19 00:38:17;;;;;;;;;;;;;;;;;;5035497;28;1913;-71
2022/02/19 00:40:43;;;;;;;;;;;;;;;;;;5053750;28;1082;-71
2022/02/19 00:43:11;;;;;;;;;;;;;;;;;;5035617;28;1515;-71
2022/02/19 00:45:37;;;;;;;;;;;;;;;;;;5053227;28;808;-71
2022/02/19 00:48:03;;;;;;;;;;;;;;;;;;5053577;28;1387;-71
2022/02/19 00:50:31;;;;;;;;;;;;;;;;;;5035637;28;887;-71
2022/02/19 00:52:57;;;;;;;;;;;;;;;;;;5053418;28;880;-71
2022/02/19 00:55:24;;;;;;;;;;;;;;;;;;5053036;28;793;-71
2022/02/19 00:57:50;;;;;;;;;;;;;;;;;;5035243;28;1910;-71
2022/02/19 01:00:19;;;;;;;;;;;;;;;;;;5053404;28;832;-71
2022/02/19 01:02:58;;;;;;;;;;;;;;;;;;5034268;28;1249;-72
2022/02/19 01:05:26;;;;;;;;;;;;;;;;;;4993235;28;1536;-71
2022/02/19 01:07:52;;;;;;;;;;;;;;;;;;5011765;28;1326;-72
2022/02/19 01:10:20;;;;;;;;;;;;;;;;;;5012022;28;1117;-72
2022/02/19 01:12:46;;;;;;;;;;;;;;;;;;5008540;28;1251;-72
2022/02/19 01:15:12;;;;;;;;;;;;;;;;;;4993306;28;1338;-71
2022/02/19 01:17:40;;;;;;;;;;;;;;;;;;4993460;28;1977;-71
2022/02/19 01:20:08;;;;;;;;;;;;;;;;;;4992744;28;1467;-71
2022/02/19 01:22:34;;;;;;;;;;;;;;;;;;5002144;28;1468;-71
2022/02/19 01:25:01;;;;;;;;;;;;;;;;;;5030547;28;816;-71
2022/02/19 01:27:27;;;;;;;;;;;;;;;;;;5013088;28;1428;-71
2022/02/19 01:29:54;;;;;;;;;;;;;;;;;;5012914;28;1169;-71
2022/02/19 01:32:21;;;;;;;;;;;;;;;;;;5012885;28;1240;-71
2022/02/19 01:34:49;;;;;;;;;;;;;;;;;;5012775;28;1414;-71
2022/02/19 01:37:15;;;;;;;;;;;;;;;;;;5030199;28;1922;-71
2022/02/19 01:39:45;;;;;;;;;;;;;;;;;;5012856;28;1186;-71
2022/02/19 01:42:13;;;;;;;;;;;;;;;;;;5012692;28;1364;-71
2022/02/19 01:44:43;;;;;;;;;;;;;;;;;;5012453;28;1472;-71
2022/02/19 01:47:12;;;;;;;;;;;;;;;;;;5012526;28;1733;-71
2022/02/19 01:49:39;;;;;;;;;;;;;;;;;;5012509;28;1407;-71
2022/02/19 01:52:09;;;;;;;;;;;;;;;;;;5012275;28;1431;-71
2022/02/19 01:54:35;;;;;;;;;;;;;;;;;;5001395;28;1699;-71
2022/02/19 01:57:09;;;;;;;;;;;;;;;;;;4994289;28;1915;-71
2022/02/19 01:59:51;;;;;;;;;;;;;;;;;;4993948;28;1068;-71
2022/02/19 02:02:36;;;;;;;;;;;;;;;;;;5012497;28;646;-71
2022/02/19 02:05:21;;;;;;;;;;;;;;;;;;5012217;28;687;-71
2022/02/19 02:07:48;;;;;;;;;;;;;;;;;;4994596;28;1403;-71
2022/02/19 02:10:15;;;;;;;;;;;;;;;;;;4994914;28;1264;-71
2022/02/19 02:12:41;;;;;;;;;;;;;;;;;;4994268;28;1583;-71
2022/02/19 02:15:30;;;;;;;;;;;;;;;;;;4993952;28;1101;-72
2022/02/19 02:18:12;;;;;;;;;;;;;;;;;;4994422;28;1918;-71
2022/02/19 02:20:39;;;;;;;;;;;;;;;;;;5012001;28;781;-72
2022/02/19 02:23:08;;;;;;;;;;;;;;;;;;4994434;28;1428;-72
2022/02/19 02:25:35;;;;;;;;;;;;;;;;;;5011836;28;797;-71
2022/02/19 02:28:09;;;;;;;;;;;;;;;;;;4994067;28;2055;-71
2022/02/19 02:30:35;;;;;;;;;;;;;;;;;;4994461;28;984;-72
2022/02/19 02:33:11;;;;;;;;;;;;;;;;;;4994681;28;1314;-72
2022/02/19 02:35:39;;;;;;;;;;;;;;;;;;4994055;28;1231;-72
2022/02/19 02:38:06;;;;;;;;;;;;;;;;;;4993977;28;1918;-72
2022/02/19 02:40:33;;;;;;;;;;;;;;;;;;5011706;28;822;-71
2022/02/19 02:43:01;;;;;;;;;;;;;;;;;;4993959;28;1191;-71
2022/02/19 02:45:27;;;;;;;;;;;;;;;;;;5011572;28;857;-71
2022/02/19 02:47:54;;;;;;;;;;;;;;;;;;5011284;28;1313;-71
2022/02/19 02:50:21;;;;;;;;;;;;;;;;;;4994030;28;1726;-71
2022/02/19 02:52:47;;;;;;;;;;;;;;;;;;4994016;28;1306;-72
2022/02/19 03:07:38;;;;;;;;;;;;;;;;;;5087579;27;1446;-70
2022/02/19 03:10:08;;;;;;;;;;;;;;;;;;5087682;28;1479;-70
2022/02/19 03:30:59;;;;;;;;;;;;;;;;;;5128655;27;1393;-71
2022/02/19 03:33:43;;;;;;;;;;;;;;;;;;5128760;28;1307;-71
2022/02/19 03:36:12;;;;;;;;;;;;;;;;;;5112812;28;2011;-70
2022/02/19 03:38:39;;;;;;;;;;;;;;;;;;5118642;28;1913;-71
2022/02/19 03:41:09;;;;;;;;;;;;;;;;;;5118295;27;1392;-72
2022/02/19 03:43:35;;;;;;;;;;;;;;;;;;5106979;28;1343;-71
2022/02/19 03:46:05;;;;;;;;;;;;;;;;;;5106873;28;1194;-71
2022/02/19 03:48:49;;;;;;;;;;;;;;;;;;5108347;28;787;-72
2022/02/19 03:51:18;;;;;;;;;;;;;;;;;;5106378;28;1422;-71
2022/02/19 03:53:47;;;;;;;;;;;;;;;;;;5112395;28;1568;-71
2022/02/19 03:56:17;;;;;;;;;;;;;;;;;;5106535;28;1688;-71
2022/02/19 03:58:43;;;;;;;;;;;;;;;;;;5106554;28;1973;-71
2022/02/19 04:01:12;;;;;;;;;;;;;;;;;;5105912;28;1384;-71
2022/02/19 04:03:38;;;;;;;;;;;;;;;;;;5106466;28;1202;-71
2022/02/19 04:06:06;;;;;;;;;;;;;;;;;;5106517;28;1311;-70
2022/02/19 04:08:33;;;;;;;;;;;;;;;;;;5106504;28;1173;-70
2022/02/19 04:10:59;;;;;;;;;;;;;;;;;;5106475;28;1425;-71
2022/02/19 04:13:26;;;;;;;;;;;;;;;;;;5106932;28;1086;-71
2022/02/19 04:16:04;;;;;;;;;;;;;;;;;;5106215;28;1210;-69
2022/02/19 04:18:34;;;;;;;;;;;;;;;;;;5106104;28;1914;-71
2022/02/19 04:21:01;;;;;;;;;;;;;;;;;;5105720;28;1359;-70
2022/02/19 04:23:28;;;;;;;;;;;;;;;;;;5106052;28;1449;-71
2022/02/19 04:26:00;;;;;;;;;;;;;;;;;;5106015;28;1529;-70
2022/02/19 04:28:35;;;;;;;;;;;;;;;;;;5106404;28;1319;-70
2022/02/19 04:31:02;;;;;;;;;;;;;;;;;;5126168;27;1492;-71
2022/02/19 04:33:28;;;;;;;;;;;;;;;;;;5133261;27;1514;-71
2022/02/19 04:35:57;;;;;;;;;;;;;;;;;;5133268;27;1435;-71
2022/02/19 04:38:24;;;;;;;;;;;;;;;;;;5133138;27;1490;-70
2022/02/19 04:40:52;;;;;;;;;;;;;;;;;;5132651;27;1984;-71
2022/02/19 04:43:19;;;;;;;;;;;;;;;;;;5133056;27;1381;-71
2022/02/19 04:45:48;;;;;;;;;;;;;;;;;;5133250;27;1322;-71
2022/02/19 04:48:15;;;;;;;;;;;;;;;;;;5133102;27;1283;-72
2022/02/19 04:50:43;;;;;;;;;;;;;;;;;;5132727;27;1719;-70
2022/02/19 04:53:11;;;;;;;;;;;;;;;;;;5132812;27;915;-71
2022/02/19 04:55:37;;;;;;;;;;;;;;;;;;5132900;27;1188;-70
2022/02/19 04:58:13;;;;;;;;;;;;;;;;;;5132721;27;1258;-70
2022/02/19 05:00:39;;;;;;;;;;;;;;;;;;5132229;27;1953;-70
2022/02/19 05:03:21;;;;;;;;;;;;;;;;;;5133844;27;847;-71
2022/02/19 05:06:05;;;;;;;;;;;;;;;;;;5134099;27;716;-71
2022/02/19 05:08:35;;;;;;;;;;;;;;;;;;5132649;27;1346;-71
2022/02/19 05:11:01;;;;;;;;;;;;;;;;;;5132192;27;1328;-71
2022/02/19 05:13:40;;;;;;;;;;;;;;;;;;5132542;27;1491;-71
2022/02/19 05:16:08;;;;;;;;;;;;;;;;;;5132427;27;1389;-70
2022/02/19 05:18:54;;;;;;;;;;;;;;;;;;5125831;27;1910;-71
2022/02/19 05:21:22;;;;;;;;;;;;;;;;;;5132061;27;1694;-72
2022/02/19 05:23:53;;;;;;;;;;;;;;;;;;5117088;27;1689;-71
2022/02/19 05:26:25;;;;;;;;;;;;;;;;;;5111913;28;1332;-71
2022/02/19 05:28:52;;;;;;;;;;;;;;;;;;5111683;28;1973;-71
2022/02/19 05:31:19;;;;;;;;;;;;;;;;;;5111207;28;1514;-71
2022/02/19 05:33:55;;;;;;;;;;;;;;;;;;5111694;28;1694;-71
2022/02/19 05:36:23;;;;;;;;;;;;;;;;;;5111642;28;1252;-70
2022/02/19 05:38:49;;;;;;;;;;;;;;;;;;5111470;28;1973;-71
2022/02/19 05:41:17;;;;;;;;;;;;;;;;;;5110999;28;1428;-71
2022/02/19 05:43:44;;;;;;;;;;;;;;;;;;5110828;28;1366;-71
2022/02/19 05:46:17;;;;;;;;;;;;;;;;;;5111324;28;1205;-71
2022/02/19 05:48:43;;;;;;;;;;;;;;;;;;5111334;28;1478;-71
2022/02/19 05:51:27;;;;;;;;;;;;;;;;;;5110879;28;2047;-71
2022/02/19 05:53:58;;;;;;;;;;;;;;;;;;5111115;28;1193;-72
2022/02/19 05:56:27;;;;;;;;;;;;;;;;;;5111153;28;1894;-71
2022/02/19 05:58:53;;;;;;;;;;;;;;;;;;5111147;28;1161;-71
2022/02/19 06:01:22;;;;;;;;;;;;;;;;;;5110649;28;1357;-70
2022/02/19 06:03:53;;;;;;;;;;;;;;;;;;5111039;28;1437;-71
2022/02/19 06:06:23;;;;;;;;;;;;;;;;;;5107802;28;1390;-71
2022/02/19 06:08:49;;;;;;;;;;;;;;;;;;5100614;28;1501;-69
2022/02/19 06:11:17;;;;;;;;;;;;;;;;;;5089838;28;1569;-69
2022/02/19 06:14:04;;;;;;;;;;;;;;;;;;5105769;28;1468;-69
2022/02/19 06:16:38;;;;;;;;;;;;;;;;;;5107733;28;1330;-70
2022/02/19 06:19:06;;;;;;;;;;;;;;;;;;5107849;28;1972;-71
2022/02/19 06:21:32;;;;;;;;;;;;;;;;;;5108323;28;1364;-71
2022/02/19 06:23:59;;;;;;;;;;;;;;;;;;5107408;28;1441;-71
2022/02/19 06:26:27;;;;;;;;;;;;;;;;;;5108079;28;1557;-71
2022/02/19 06:29:13;;;;;;;;;;;;;;;;;;5099888;28;1387;-71
2022/02/19 06:31:46;;;;;;;;;;;;;;;;;;5104891;28;1493;-70
2022/02/19 06:34:13;;;;;;;;;;;;;;;;;;5108332;28;1178;-70
2022/02/19 06:36:39;;;;;;;;;;;;;;;;;;5108198;28;1556;-71
2022/02/19 06:39:06;;;;;;;;;;;;;;;;;;5109784;28;1479;-72
2022/02/19 06:41:33;;;;;;;;;;;;;;;;;;5107965;28;1376;-71
2022/02/19 06:44:23;;;;;;;;;;;;;;;;;;5102477;28;1492;-69
2022/02/19 06:46:52;;;;;;;;;;;;;;;;;;5101479;28;1357;-72
2022/02/19 06:49:18;;;;;;;;;;;;;;;;;;5105355;28;1290;-72
2022/02/19 06:51:48;;;;;;;;;;;;;;;;;;5098502;28;1488;-71
2022/02/19 06:54:15;;;;;;;;;;;;;;;;;;5108400;28;1573;-70
2022/02/19 06:56:41;;;;;;;;;;;;;;;;;;5110181;28;1342;-72
2022/02/19 06:59:10;;;;;;;;;;;;;;;;;;5110082;28;1582;-71
2022/02/19 07:01:38;;;;;;;;;;;;;;;;;;5109129;28;1913;-71
2022/02/19 07:04:04;;;;;;;;;;;;;;;;;;5100672;28;1487;-71
2022/02/19 07:06:49;;;;;;;;;;;;;;;;;;5091306;28;685;-70
2022/02/19 07:09:15;;;;;;;;;;;;;;;;;;5104024;28;1500;-71
2022/02/19 07:11:42;;;;;;;;;;;;;;;;;;5109321;28;1619;-71
2022/02/19 07:14:11;;;;;;;;;;;;;;;;;;5109401;28;1559;-70
2022/02/19 07:16:39;;;;;;;;;;;;;;;;;;5109911;28;1448;-71
2022/02/19 07:19:07;;;;;;;;;;;;;;;;;;5109554;28;1634;-72
2022/02/19 07:21:33;;;;;;;;;;;;;;;;;;5108900;28;1917;-71
2022/02/19 07:23:59;;;;;;;;;;;;;;;;;;5108951;28;1483;-72
2022/02/19 07:26:29;;;;;;;;;;;;;;;;;;5109782;28;1458;-72
2022/02/19 07:29:02;;;;;;;;;;;;;;;;;;5108878;28;1581;-73
2022/02/19 07:31:33;;;;;;;;;;;;;;;;;;5109480;28;1508;-72
2022/02/19 07:34:01;;;;;;;;;;;;;;;;;;5109543;28;1192;-72
2022/02/19 07:36:31;;;;;;;;;;;;;;;;;;5109775;28;1197;-73
2022/02/19 07:38:58;;;;;;;;;;;;;;;;;;5109613;28;1433;-73
2022/02/19 07:41:26;;;;;;;;;;;;;;;;;;5109069;28;1921;-73
2022/02/19 07:44:27;;;;;;;;;;;;;;;;;;5110819;28;1072;-73
2022/02/19 07:47:23;;;;;;;;;;;;;;;;;;5110799;28;1111;-72
2022/02/19 07:59:07;;;;;;;;;;;;;;;;;;5109362;28;1124;-73
2022/02/19 08:01:33;;;;;;;;;;;;;;;;;;5109139;28;2057;-73
2022/02/19 08:03:59;;;;;;;;;;;;;;;;;;5109619;28;1344;-72
2022/02/19 08:06:27;;;;;;;;;;;;;;;;;;5111499;28;1524;-72
2022/02/19 08:08:54;;;;;;;;;;;;;;;;;;5113084;28;1415;-72
2022/02/19 08:11:27;;;;;;;;;;;;;;;;;;5113217;28;1340;-75
2022/02/19 08:13:54;;;;;;;;;;;;;;;;;;5113104;28;1480;-75
2022/02/19 08:16:20;;;;;;;;;;;;;;;;;;5114394;28;1566;-74
2022/02/19 08:18:47;;;;;;;;;;;;;;;;;;5114676;28;908;-74
2022/02/19 08:21:14;;;;;;;;;;;;;;;;;;5114058;28;1981;-73
2022/02/19 08:23:41;;;;;;;;;;;;;;;;;;5114156;28;884;-74
2022/02/19 08:26:07;;;;;;;;;;;;;;;;;;5114408;28;1113;-74
2022/02/19 08:28:34;;;;;;;;;;;;;;;;;;5114159;28;898;-71
2022/02/19 08:31:00;;;;;;;;;;;;;;;;;;5113935;28;1291;-74
2022/02/19 08:33:26;;;;;;;;;;;;;;;;;;5114202;28;896;-74
2022/02/19 08:35:53;;;;;;;;;;;;;;;;;;5114039;28;892;-74
2022/02/19 08:38:19;;;;;;;;;;;;;;;;;;5113816;28;1090;-74
2022/02/19 08:40:46;;;;;;;;;;;;;;;;;;5113674;28;1909;-74
2022/02/19 08:43:13;;;;;;;;;;;;;;;;;;5114024;27;1069;-73
2022/02/19 08:45:39;;;;;;;;;;;;;;;;;;5113952;28;1120;-74
2022/02/19 08:48:06;;;;;;;;;;;;;;;;;;5113691;28;1022;-74
2022/02/19 08:50:33;;;;;;;;;;;;;;;;;;5112082;28;1532;-74
2022/02/19 08:52:59;;;;;;;;;;;;;;;;;;5113877;28;900;-74
2022/02/19 08:55:25;;;;;;;;;;;;;;;;;;5113808;28;1062;-74
2022/02/19 08:57:53;;;;;;;;;;;;;;;;;;5113567;27;851;-74
2022/02/19 09:00:19;;;;;;;;;;;;;;;;;;5113198;28;1973;-74
2022/02/19 09:02:45;;;;;;;;;;;;;;;;;;5113630;28;1149;-74
2022/02/19 09:05:13;;;;;;;;;;;;;;;;;;5113467;27;898;-75
2022/02/19 09:07:40;;;;;;;;;;;;;;;;;;5112990;28;1129;-74
2022/02/19 09:10:06;;;;;;;;;;;;;;;;;;5112203;28;1336;-74
2022/02/19 09:12:32;;;;;;;;;;;;;;;;;;5113469;28;996;-74
2022/02/19 09:15:00;;;;;;;;;;;;;;;;;;5113363;28;859;-74
2022/02/19 09:17:26;;;;;;;;;;;;;;;;;;5111772;28;1686;-73
2022/02/19 09:19:52;;;;;;;;;;;;;;;;;;5112710;28;1320;-73
2022/02/19 09:22:19;;;;;;;;;;;;;;;;;;5112990;28;1922;-74
2022/02/19 09:24:45;;;;;;;;;;;;;;;;;;5112990;28;1030;-73
2022/02/19 09:27:11;;;;;;;;;;;;;;;;;;5123846;27;1063;-74
2022/02/19 09:29:37;;;;;;;;;;;;;;;;;;5128886;27;1113;-75
2022/02/19 09:32:05;;;;;;;;;;;;;;;;;;5112630;28;1403;-75
2022/02/19 09:34:32;;;;;;;;;;;;;;;;;;5129145;22;3511;-77
2022/02/19 09:36:58;;;;;;;;;;;;;;;;;;5095878;28;1479;-76
2022/02/19 09:39:24;;;;;;;;;;;;;;;;;;5108461;28;2103;-76
2022/02/19 09:41:50;;;;;;;;;;;;;;;;;;5112555;28;1914;-77
2022/02/19 09:44:16;;;;;;;;;;;;;;;;;;5115222;27;1345;-76
2022/02/19 09:46:43;;;;;;;;;;;;;;;;;;5133838;27;1070;-77
2022/02/19 09:49:10;;;;;;;;;;;;;;;;;;5133769;27;1053;-77
2022/02/19 09:51:37;;;;;;;;;;;;;;;;;;5134286;27;959;-77
2022/02/19 09:54:03;;;;;;;;;;;;;;;;;;5134286;27;1387;-75
2022/02/19 09:56:30;;;;;;;;;;;;;;;;;;5133566;27;813;-76
2022/02/19 09:58:57;;;;;;;;;;;;;;;;;;5115312;27;1191;-77
2022/02/19 10:01:24;;;;;;;;;;;;;;;;;;5133155;27;1918;-77
2022/02/19 10:03:56;;;;;;;;;;;;;;;;;;5133354;27;1073;-77
2022/02/19 10:06:27;;;;;;;;;;;;;;;;;;5132698;27;1311;-76
2022/02/19 10:09:07;;;;;;;;;;;;;;;;;;5127630;27;1567;-76
2022/02/19 10:11:33;;;;;;;;;;;;;;;;;;5112865;27;1484;-76
2022/02/19 10:13:59;;;;;;;;;;;;;;;;;;5124797;27;1706;-76
2022/02/19 10:16:26;;;;;;;;;;;;;;;;;;5110298;28;1455;-77
2022/02/19 10:18:52;;;;;;;;;;;;;;;;;;5110474;28;1078;-76
2022/02/19 10:21:18;;;;;;;;;;;;;;;;;;5109985;28;1951;-76
2022/02/19 10:23:47;;;;;;;;;;;;;;;;;;5110899;28;956;-76
2022/02/19 10:26:13;;;;;;;;;;;;;;;;;;5112134;28;1297;-76
2022/02/19 10:28:39;;;;;;;;;;;;;;;;;;5111648;28;868;-76
2022/02/19 10:31:13;;;;;;;;;;;;;;;;;;5111788;28;1098;-76
2022/02/19 10:33:40;;;;;;;;;;;;;;;;;;5112013;28;964;-75
2022/02/19 10:36:09;;;;;;;;;;;;;;;;;;5111857;28;1281;-76
2022/02/19 10:38:50;;;;;;;;;;;;;;;;;;5111974;28;906;-76
2022/02/19 10:41:17;;;;;;;;;;;;;;;;;;5111286;28;1967;-76
2022/02/19 10:43:44;;;;;;;;;;;;;;;;;;5111710;28;935;-76
2022/02/19 10:46:11;;;;;;;;;;;;;;;;;;5111576;28;1324;-76
2022/02/19 10:48:38;;;;;;;;;;;;;;;;;;5111780;28;1093;-76
2022/02/19 10:51:07;;;;;;;;;;;;;;;;;;5111362;28;1081;-76
2022/02/19 10:53:36;;;;;;;;;;;;;;;;;;5111894;28;891;-76
2022/02/19 10:56:02;;;;;;;;;;;;;;;;;;5111378;28;1297;-76
2022/02/19 10:58:30;;;;;;;;;;;;;;;;;;5110652;28;1349;-76
2022/02/19 11:00:56;;;;;;;;;;;;;;;;;;5111190;28;1921;-76
2022/02/19 11:03:22;;;;;;;;;;;;;;;;;;5093251;28;1277;-76
2022/02/19 11:05:48;;;;;;;;;;;;;;;;;;5111409;28;1411;-76
2022/02/19 11:08:15;;;;;;;;;;;;;;;;;;5111536;28;1082;-76
2022/02/19 11:10:41;;;;;;;;;;;;;;;;;;5111189;28;1034;-77
2022/02/19 11:13:07;;;;;;;;;;;;;;;;;;5111307;28;931;-76
2022/02/19 11:15:35;;;;;;;;;;;;;;;;;;5111288;28;1289;-76
2022/02/19 11:18:02;;;;;;;;;;;;;;;;;;5111294;28;1077;-75
2022/02/19 11:20:28;;;;;;;;;;;;;;;;;;5110753;28;1430;-76
2022/02/19 11:22:54;;;;;;;;;;;;;;;;;;5111191;28;1965;-76
2022/02/19 11:25:21;;;;;;;;;;;;;;;;;;5111220;28;1309;-76
2022/02/19 11:27:48;;;;;;;;;;;;;;;;;;5127086;28;1385;-75
2022/02/19 11:30:14;;;;;;;;;;;;;;;;;;5123959;28;1531;-73
2022/02/19 11:32:42;;;;;;;;;;;;;;;;;;5106372;28;1388;-73
2022/02/19 11:35:09;;;;;;;;;;;;;;;;;;5101909;28;1282;-74
2022/02/19 11:37:39;;;;;;;;;;;;;;;;;;5128293;28;1474;-73
2022/02/19 11:40:07;;;;;;;;;;;;;;;;;;5110835;28;1089;-73
2022/02/19 11:42:37;;;;;;;;;;;;;;;;;;5097063;28;1975;-74
2022/02/19 11:45:17;;;;;;;;;;;;;;;;;;5115027;28;1298;-73
2022/02/19 11:47:45;;;;;;;;;;;;;;;;;;5097044;28;912;-73
2022/02/19 11:50:21;;;;;;;;;;;;;;;;;;5114685;28;1110;-73
2022/02/19 11:53:02;;;;;;;;;;;;;;;;;;5115097;28;805;-73
2022/02/19 11:55:30;;;;;;;;;;;;;;;;;;5124923;27;1571;-73
2022/02/19 11:57:59;;;;;;;;;;;;;;;;;;5114974;28;940;-73
2022/02/19 12:00:41;;;;;;;;;;;;;;;;;;5128288;27;1556;-74
2022/02/19 12:03:19;;;;;;;;;;;;;;;;;;5133677;27;1973;-73
2022/02/19 12:06:04;;;;;;;;;;;;;;;;;;5116969;27;1539;-73
2022/02/19 12:08:35;;;;;;;;;;;;;;;;;;5097454;28;1513;-73
2022/02/19 12:11:05;;;;;;;;;;;;;;;;;;5114628;28;971;-74
2022/02/19 12:13:41;;;;;;;;;;;;;;;;;;5115816;27;1500;-73
2022/02/19 12:16:23;;;;;;;;;;;;;;;;;;5114633;28;1344;-73
2022/02/19 12:18:53;;;;;;;;;;;;;;;;;;5127187;27;2067;-73
2022/02/19 12:21:29;;;;;;;;;;;;;;;;;;5120405;27;1917;-74
2022/02/19 12:24:02;;;;;;;;;;;;;;;;;;5114445;28;877;-73
2022/02/19 12:26:28;;;;;;;;;;;;;;;;;;5128682;27;1532;-73
2022/02/19 12:29:09;;;;;;;;;;;;;;;;;;5135311;27;856;-73
2022/02/19 12:31:35;;;;;;;;;;;;;;;;;;5132440;27;2101;-74
2022/02/19 12:34:09;;;;;;;;;;;;;;;;;;5115958;27;1507;-73
2022/02/19 12:36:35;;;;;;;;;;;;;;;;;;5123077;27;1543;-74
2022/02/19 12:39:01;;;;;;;;;;;;;;;;;;5116141;27;1799;-73
2022/02/19 12:41:27;;;;;;;;;;;;;;;;;;5131432;27;1910;-74
2022/02/19 12:44:00;;;;;;;;;;;;;;;;;;5116617;27;963;-73
2022/02/19 12:46:27;;;;;;;;;;;;;;;;;;5120169;27;1582;-73
2022/02/19 12:48:53;;;;;;;;;;;;;;;;;;5095776;28;1098;-73
2022/02/19 12:51:21;;;;;;;;;;;;;;;;;;5115487;27;1492;-73
2022/02/19 12:53:47;;;;;;;;;;;;;;;;;;5131483;27;1514;-74
2022/02/19 12:56:13;;;;;;;;;;;;;;;;;;5122804;27;1539;-73
2022/02/19 12:58:46;;;;;;;;;;;;;;;;;;5113699;28;1006;-73
2022/02/19 13:01:12;;;;;;;;;;;;;;;;;;5116662;27;1914;-73
2022/02/19 13:03:42;;;;;;;;;;;;;;;;;;5113743;28;841;-72
2022/02/19 13:06:08;;;;;;;;;;;;;;;;;;5114674;27;1476;-73
2022/02/19 13:08:38;;;;;;;;;;;;;;;;;;5132038;27;1587;-72
2022/02/19 13:11:04;;;;;;;;;;;;;;;;;;5113681;28;789;-72
2022/02/19 13:13:36;;;;;;;;;;;;;;;;;;5125129;27;1664;-72
2022/02/19 13:16:03;;;;;;;;;;;;;;;;;;5113345;27;1378;-73
2022/02/19 13:18:36;;;;;;;;;;;;;;;;;;5115061;27;1487;-71
2022/02/19 13:21:05;;;;;;;;;;;;;;;;;;5109798;27;1505;-71
2022/02/19 13:23:32;;;;;;;;;;;;;;;;;;5112727;27;2016;-72
2022/02/19 13:26:00;;;;;;;;;;;;;;;;;;5117696;27;1518;-73
2022/02/19 13:28:26;;;;;;;;;;;;;;;;;;5130978;27;1464;-72
2022/02/19 13:30:52;;;;;;;;;;;;;;;;;;5125104;27;1452;-72
2022/02/19 13:33:18;;;;;;;;;;;;;;;;;;5124529;27;1448;-73
2022/02/19 13:35:45;;;;;;;;;;;;;;;;;;5111057;27;1535;-71
2022/02/19 13:38:11;;;;;;;;;;;;;;;;;;5117742;27;1444;-72
2022/02/19 13:40:37;;;;;;;;;;;;;;;;;;5114419;27;1498;-71
2022/02/19 13:43:12;;;;;;;;;;;;;;;;;;5125886;27;1937;-71
2022/02/19 13:45:42;;;;;;;;;;;;;;;;;;5132278;27;1307;-72
2022/02/19 13:48:09;;;;;;;;;;;;;;;;;;5120490;27;1539;-71
2022/02/19 13:50:35;;;;;;;;;;;;;;;;;;5111022;28;1140;-71
2022/02/19 13:53:02;;;;;;;;;;;;;;;;;;5118439;27;1476;-71
2022/02/19 13:55:30;;;;;;;;;;;;;;;;;;5131358;27;1464;-72
2022/02/19 13:57:56;;;;;;;;;;;;;;;;;;5129492;27;1496;-70
2022/02/19 14:00:31;;;;;;;;;;;;;;;;;;5130791;27;1173;-71
2022/02/19 14:02:58;;;;;;;;;;;;;;;;;;5117058;27;1918;-71
2022/02/19 14:05:24;;;;;;;;;;;;;;;;;;5097121;27;1325;-71
2022/02/19 14:07:54;;;;;;;;;;;;;;;;;;5114298;27;1383;-71
2022/02/19 14:10:20;;;;;;;;;;;;;;;;;;5123100;27;1430;-71
2022/02/19 14:12:46;;;;;;;;;;;;;;;;;;5130818;27;1145;-71
2022/02/19 14:15:14;;;;;;;;;;;;;;;;;;5130207;27;1475;-71
2022/02/19 14:17:43;;;;;;;;;;;;;;;;;;5116169;27;1545;-72
2022/02/19 14:20:10;;;;;;;;;;;;;;;;;;5110766;27;1559;-72
2022/02/19 14:22:40;;;;;;;;;;;;;;;;;;5110260;28;1965;-72
2022/02/19 14:25:06;;;;;;;;;;;;;;;;;;5097961;27;1551;-72
2022/02/19 14:27:46;;;;;;;;;;;;;;;;;;5130786;27;1074;-71
2022/02/19 14:30:12;;;;;;;;;;;;;;;;;;5128660;27;1589;-70
2022/02/19 14:32:38;;;;;;;;;;;;;;;;;;5130594;27;1126;-71
2022/02/19 14:35:07;;;;;;;;;;;;;;;;;;5120835;27;1440;-71
2022/02/19 14:37:33;;;;;;;;;;;;;;;;;;5110170;28;979;-71
2022/02/19 14:39:59;;;;;;;;;;;;;;;;;;5110964;27;1476;-72
2022/02/19 14:42:25;;;;;;;;;;;;;;;;;;5103493;28;1909;-72
2022/02/19 14:44:51;;;;;;;;;;;;;;;;;;5109823;28;1345;-71
2022/02/19 14:47:18;;;;;;;;;;;;;;;;;;5121520;27;1353;-72
2022/02/19 14:49:45;;;;;;;;;;;;;;;;;;5128094;27;850;-72
2022/02/19 14:52:12;;;;;;;;;;;;;;;;;;5130076;27;1089;-72
2022/02/19 14:54:38;;;;;;;;;;;;;;;;;;5116434;27;1491;-72
2022/02/19 14:57:05;;;;;;;;;;;;;;;;;;5117450;27;1539;-72
2022/02/19 14:59:31;;;;;;;;;;;;;;;;;;5107967;27;1532;-70
2022/02/19 15:01:57;;;;;;;;;;;;;;;;;;5125373;27;1910;-71
2022/02/19 15:04:24;;;;;;;;;;;;;;;;;;5111541;28;1404;-71
2022/02/19 15:06:50;;;;;;;;;;;;;;;;;;5093565;28;1481;-73
2022/02/19 15:09:19;;;;;;;;;;;;;;;;;;5123095;27;1500;-70
2022/02/19 15:11:45;;;;;;;;;;;;;;;;;;5130373;27;1511;-71
2022/02/19 15:14:11;;;;;;;;;;;;;;;;;;5131316;27;1547;-72
2022/02/19 15:16:38;;;;;;;;;;;;;;;;;;5093306;28;1556;-73
2022/02/19 15:19:04;;;;;;;;;;;;;;;;;;5111365;28;789;-73
2022/02/19 15:21:30;;;;;;;;;;;;;;;;;;5111254;28;1150;-72
2022/02/19 15:23:56;;;;;;;;;;;;;;;;;;5111334;28;1894;-72
2022/02/19 15:26:24;;;;;;;;;;;;;;;;;;5111194;28;1317;-72
2022/02/19 15:28:50;;;;;;;;;;;;;;;;;;5111252;28;833;-72
2022/02/19 15:31:16;;;;;;;;;;;;;;;;;;5111186;28;1078;-73
2022/02/19 15:33:42;;;;;;;;;;;;;;;;;;5113576;28;1559;-72
2022/02/19 15:36:09;;;;;;;;;;;;;;;;;;5112326;28;1506;-73
2022/02/19 15:38:35;;;;;;;;;;;;;;;;;;5107293;22;2058;-70
2022/02/19 15:41:02;;;;;;;;;;;;;;;;;;5082766;28;1085;-71
2022/02/19 15:43:30;;;;;;;;;;;;;;;;;;5068793;28;1969;-71
2022/02/19 15:45:56;;;;;;;;;;;;;;;;;;5070589;28;951;-71
2022/02/19 15:48:22;;;;;;;;;;;;;;;;;;5083516;28;1388;-71
2022/02/19 15:50:48;;;;;;;;;;;;;;;;;;5089907;28;1504;-72
2022/02/19 15:53:15;;;;;;;;;;;;;;;;;;5106056;28;1567;-71
2022/02/19 15:55:41;;;;;;;;;;;;;;;;;;5078007;28;1479;-70
2022/02/19 15:58:07;;;;;;;;;;;;;;;;;;5094734;28;1516;-71
2022/02/19 16:00:35;;;;;;;;;;;;;;;;;;5103513;28;1456;-70
2022/02/19 16:03:01;;;;;;;;;;;;;;;;;;5106734;28;1926;-71
2022/02/19 16:05:27;;;;;;;;;;;;;;;;;;5108556;28;1003;-71
2022/02/19 16:07:54;;;;;;;;;;;;;;;;;;5104192;28;1555;-71
2022/02/19 16:10:20;;;;;;;;;;;;;;;;;;5108418;28;1164;-71
2022/02/19 16:12:46;;;;;;;;;;;;;;;;;;5103831;28;1444;-70
2022/02/19 16:15:13;;;;;;;;;;;;;;;;;;5104110;28;1592;-69
2022/02/19 16:17:40;;;;;;;;;;;;;;;;;;5108754;28;1368;-70
2022/02/19 16:20:07;;;;;;;;;;;;;;;;;;5099993;28;1586;-71
2022/02/19 16:22:33;;;;;;;;;;;;;;;;;;5104074;28;1921;-71
2022/02/19 16:25:00;;;;;;;;;;;;;;;;;;5093723;28;985;-71
2022/02/19 16:27:26;;;;;;;;;;;;;;;;;;5073322;28;1579;-70
2022/02/19 16:29:52;;;;;;;;;;;;;;;;;;5091784;28;1452;-72
2022/02/19 16:32:18;;;;;;;;;;;;;;;;;;5097507;28;1464;-72
2022/02/19 16:34:46;;;;;;;;;;;;;;;;;;5100315;28;1472;-72
2022/02/19 16:37:12;;;;;;;;;;;;;;;;;;5111895;28;1313;-70
2022/02/19 16:39:38;;;;;;;;;;;;;;;;;;5111274;28;1384;-71
2022/02/19 16:42:05;;;;;;;;;;;;;;;;;;5111857;28;1077;-70
2022/02/19 16:44:31;;;;;;;;;;;;;;;;;;5105936;28;1971;-71
2022/02/19 16:46:57;;;;;;;;;;;;;;;;;;5091348;28;1327;-72
2022/02/19 16:49:24;;;;;;;;;;;;;;;;;;5108253;28;1554;-72
2022/02/19 16:51:51;;;;;;;;;;;;;;;;;;5110070;28;1393;-72
2022/02/19 16:54:17;;;;;;;;;;;;;;;;;;5080132;28;2843;-72
2022/02/19 16:56:44;;;;;;;;;;;;;;;;;;5103827;28;1479;-72
2022/02/19 16:59:12;;;;;;;;;;;;;;;;;;5103369;28;1761;-72
2022/02/19 17:01:42;;;;;;;;;;;;;;;;;;5106588;28;1334;-72
2022/02/19 17:04:08;;;;;;;;;;;;;;;;;;5111379;28;1906;-73
2022/02/19 17:06:34;;;;;;;;;;;;;;;;;;5098722;28;1535;-73
2022/02/19 17:09:02;;;;;;;;;;;;;;;;;;5080766;28;1440;-73
2022/02/19 17:11:28;;;;;;;;;;;;;;;;;;5111533;28;1252;-73
2022/02/19 17:13:54;;;;;;;;;;;;;;;;;;5104791;28;1479;-73
2022/02/19 17:16:20;;;;;;;;;;;;;;;;;;5076462;28;1440;-73
2022/02/19 17:18:46;;;;;;;;;;;;;;;;;;5093223;28;1350;-74
2022/02/19 17:21:13;;;;;;;;;;;;;;;;;;5100201;28;1503;-74
2022/02/19 17:23:39;;;;;;;;;;;;;;;;;;5099109;28;1914;-74
2022/02/19 17:26:07;;;;;;;;;;;;;;;;;;5111361;28;1133;-73
2022/02/19 17:28:33;;;;;;;;;;;;;;;;;;5109316;28;1444;-74
2022/02/19 17:30:59;;;;;;;;;;;;;;;;;;5110826;28;1125;-73
2022/02/19 17:33:25;;;;;;;;;;;;;;;;;;5107267;28;1602;-73
2022/02/19 17:35:52;;;;;;;;;;;;;;;;;;5110880;28;1091;-74
2022/02/19 17:38:19;;;;;;;;;;;;;;;;;;5104388;28;1494;-73
2022/02/19 17:40:45;;;;;;;;;;;;;;;;;;5097265;28;1269;-71
2022/02/19 17:43:13;;;;;;;;;;;;;;;;;;5091318;28;1922;-73
2022/02/19 17:45:39;;;;;;;;;;;;;;;;;;5101328;28;1476;-72
2022/02/19 17:48:05;;;;;;;;;;;;;;;;;;5110480;28;1410;-73
2022/02/19 17:50:32;;;;;;;;;;;;;;;;;;5097675;28;1476;-72
2022/02/19 17:52:58;;;;;;;;;;;;;;;;;;5090233;28;1129;-73
2022/02/19 17:55:25;;;;;;;;;;;;;;;;;;5100182;28;1501;-73